Time;durP1;ratioP1;P1;durP2;ratioP2;P2;SDS_P1;SDS_P2;PMS_P1;PMS_P2;Temp;Humidity;BMP_temperature;BMP_pressure;BME280_temperature;BME280_humidity;BME280_pressure;Samples;Min_cycle;Max_cycle;Signal;HPM_P1;HPM_P2
2021/07/12 00:00:25;;;;;;;6.40;4.65;;;;;;;16.49;76.79;100006.77;1656983;84;20941;-71
2021/07/12 00:02:54;;;;;;;6.22;4.47;;;;;;;16.50;76.77;99995.30;1655152;84;20992;-71
2021/07/12 00:05:22;;;;;;;6.47;4.85;;;;;;;16.52;76.90;99990.73;1650184;85;20902;-71
2021/07/12 00:07:49;;;;;;;5.33;4.37;;;;;;;16.53;77.01;99992.45;1649475;84;20944;-71
2021/07/12 00:10:20;;;;;;;5.78;4.70;;;;;;;16.54;77.09;99986.22;1635341;85;21294;-71
2021/07/12 00:12:48;;;;;;;8.73;4.92;;;;;;;16.55;77.23;99986.58;1648249;84;21130;-71
2021/07/12 00:15:18;;;;;;;5.85;5.25;;;;;;;16.58;77.29;99992.98;1652529;84;20999;-71
2021/07/12 00:17:46;;;;;;;6.87;5.50;;;;;;;16.59;77.29;99984.12;1639002;84;20936;-70
2021/07/12 00:20:14;;;;;;;6.65;4.97;;;;;;;16.60;77.34;99985.80;1654866;84;20960;-71
2021/07/12 00:22:44;;;;;;;6.60;4.60;;;;;;;16.60;77.49;99991.06;1654546;84;21143;-71
2021/07/12 00:25:12;;;;;;;5.55;4.97;;;;;;;16.60;77.58;99996.34;1651886;84;20978;-71
2021/07/12 00:27:39;;;;;;;6.95;5.03;;;;;;;16.61;77.59;99995.41;1639990;85;21495;-71
2021/07/12 00:30:10;;;;;;;5.25;4.62;;;;;;;16.62;77.69;99994.45;1644398;85;21112;-71
2021/07/12 00:32:38;;;;;;;7.05;5.00;;;;;;;16.62;77.87;99995.77;1631067;86;20974;-71
2021/07/12 00:35:06;;;;;;;;;;;;;;;16.61;77.88;99988.82;1628659;85;21145;-71
2021/07/12 00:37:33;;;;;;;8.48;4.30;;;;;;;16.62;78.21;99985.70;1624998;85;20142;-71
2021/07/12 00:40:00;;;;;;;4.97;3.90;;;;;;;16.60;78.16;99985.80;1630804;85;20935;-71
2021/07/12 00:42:26;;;;;;;5.72;4.58;;;;;;;16.62;78.25;99989.66;1623129;85;21513;-71
2021/07/12 00:44:53;;;;;;;8.80;4.92;;;;;;;16.62;78.24;99987.86;1640581;85;20935;-71
2021/07/12 00:47:20;;;;;;;6.42;4.72;;;;;;;16.64;78.38;99983.81;1585979;88;21857;-71
2021/07/12 00:49:47;;;;;;;6.05;4.12;;;;;;;16.63;78.50;99988.22;1599696;87;20996;-71
2021/07/12 00:52:13;;;;;;;4.33;3.85;;;;;;;16.62;78.61;99986.55;1598529;87;21034;-71
2021/07/12 00:54:40;;;;;;;7.77;3.73;;;;;;;16.63;78.66;99985.58;1603184;87;21010;-71
2021/07/12 00:57:08;;;;;;;4.60;3.62;;;;;;;16.65;78.78;99985.02;1601665;87;21082;-71
2021/07/12 00:59:38;;;;;;;4.40;3.50;;;;;;;16.67;78.87;99991.52;1598986;87;21126;-71
2021/07/12 01:02:05;;;;;;;7.87;3.98;;;;;;;16.68;78.87;99982.16;1592416;88;20999;-71
2021/07/12 01:04:34;;;;;;;5.85;3.95;;;;;;;16.68;78.99;99979.53;1595270;87;20940;-71
2021/07/12 01:07:01;;;;;;;5.55;3.15;;;;;;;16.68;79.12;99984.80;1601978;87;21107;-71
2021/07/12 01:09:27;;;;;;;5.67;3.58;;;;;;;16.70;79.22;99978.95;1602057;87;23220;-71
2021/07/12 01:12:19;;;;;;;5.07;3.57;;;;;;;16.76;79.38;99981.20;1634674;85;21984;-71
2021/07/12 01:15:05;;;;;;;6.03;3.62;;;;;;;16.81;79.36;99993.23;1607539;87;21484;-71
2021/07/12 01:17:50;;;;;;;;;;;;;;;16.83;79.53;99990.84;1595508;87;21525;-71
2021/07/12 01:20:35;;;;;;;4.95;3.72;;;;;;;16.89;79.64;99988.28;1592163;88;20133;-71
2021/07/12 01:23:31;;;;;;;5.42;3.70;;;;;;;16.91;79.68;99981.08;1593526;87;20983;-71
2021/07/12 01:26:45;;;;;;;5.15;3.65;;;;;;;16.92;79.71;99976.20;1599578;87;21132;-71
2021/07/12 01:29:38;;;;;;;5.92;3.42;;;;;;;16.92;79.75;99969.60;1601532;87;21049;-71
2021/07/12 01:33:02;;;;;;;4.78;3.85;;;;;;;16.91;79.86;99965.26;1579979;87;21150;-71
2021/07/12 01:35:57;;;;;;;4.05;3.52;;;;;;;16.89;79.95;99956.63;1597842;87;21813;-71
2021/07/12 01:38:48;;;;;;;5.65;2.83;;;;;;;16.90;80.13;99947.76;1547643;91;21726;-71
2021/07/12 01:41:44;;;;;;;4.65;2.75;;;;;;;16.89;80.18;99935.05;1539941;91;21157;-71
2021/07/12 01:44:30;;;;;;;4.75;3.10;;;;;;;16.88;80.32;99929.39;1544446;91;21028;-71
2021/07/12 01:47:07;;;;;;;6.67;3.15;;;;;;;16.90;80.38;99943.80;1541747;91;21123;-71
2021/07/12 01:50:03;;;;;;;3.90;2.98;;;;;;;16.84;80.36;99948.20;1546254;90;21551;-71
2021/07/12 01:52:50;;;;;;;4.83;3.20;;;;;;;16.76;80.43;99949.55;1545442;90;20979;-71
2021/07/12 01:55:30;;;;;;;5.25;2.92;;;;;;;16.69;80.51;99934.22;1544783;91;21304;-71
2021/07/12 01:58:11;;;;;;;4.62;3.40;;;;;;;16.65;80.70;99924.37;1543122;91;21065;-71
2021/07/12 02:00:41;;;;;;;6.50;3.40;;;;;;;16.66;80.68;99924.73;1540293;91;21081;-71
2021/07/12 02:03:10;;;;;;;6.08;2.70;;;;;;;16.64;80.85;99918.75;1546185;90;20977;-71
2021/07/12 02:05:39;;;;;;;4.37;3.12;;;;;;;16.65;81.11;99928.33;1540883;91;21496;-71
2021/07/12 02:08:09;;;;;;;5.00;3.20;;;;;;;16.65;80.84;99925.70;1540590;90;21123;-71
2021/07/12 02:10:38;;;;;;;4.28;3.22;;;;;;;16.60;80.77;99925.16;1553609;90;20956;-71
2021/07/12 02:13:06;;;;;;;6.15;3.33;;;;;;;16.55;80.93;99922.00;1559408;89;21066;-71
2021/07/12 02:15:34;;;;;;;4.55;2.95;;;;;;;16.53;81.05;99918.64;1563413;87;20988;-71
2021/07/12 02:18:02;;;;;;;6.78;2.98;;;;;;;16.53;81.15;99919.48;1621475;86;21014;-71
2021/07/12 02:20:30;;;;;;;3.58;2.75;;;;;;;16.56;81.20;99921.06;1595715;87;21128;-71
2021/07/12 02:22:57;;;;;;;5.22;3.20;;;;;;;16.60;81.27;99930.44;1585991;87;21500;-71
2021/07/12 02:25:27;;;;;;;6.85;3.27;;;;;;;16.64;81.42;99929.29;1614917;86;20972;-71
2021/07/12 02:27:55;;;;;;;5.22;3.45;;;;;;;16.64;81.29;99934.56;1601399;87;20983;-71
2021/07/12 02:30:23;;;;;;;4.30;2.90;;;;;;;16.61;81.26;99932.14;1605906;86;21146;-71
2021/07/12 02:32:51;;;;;;;4.45;2.65;;;;;;;16.62;81.50;99929.86;1600267;87;21599;-71
2021/07/12 02:35:18;;;;;;;4.03;3.35;;;;;;;16.65;81.58;99933.60;1616368;86;20929;-71
2021/07/12 02:37:46;;;;;;;8.25;3.50;;;;;;;16.66;81.62;99928.69;1614979;86;20984;-71
2021/07/12 02:40:17;;;;;;;9.00;4.12;;;;;;;16.70;81.66;99923.59;1613644;86;20932;-71
2021/07/12 02:42:48;;;;;;;4.72;3.17;;;;;;;16.73;81.64;99928.64;1604257;86;20986;-71
2021/07/12 02:45:17;;;;;;;6.30;3.10;;;;;;;16.76;81.70;99911.77;1604985;87;21254;-71
2021/07/12 02:47:44;;;;;;;4.80;3.15;;;;;;;16.81;81.83;99906.22;1578381;88;21095;-71
2021/07/12 02:50:11;;;;;;;4.87;2.75;;;;;;;16.86;81.82;99909.34;1605006;87;21608;-72
2021/07/12 02:53:10;;;;;;;5.80;2.98;;;;;;;16.94;81.88;99914.93;1604778;87;21010;-71
2021/07/12 02:55:36;;;;;;;3.00;2.72;;;;;;;17.00;82.04;99914.52;1600432;87;20976;-71
2021/07/12 02:58:04;;;;;;;6.55;3.02;;;;;;;17.10;82.08;99911.58;1592437;87;21299;-71
2021/07/12 03:00:31;;;;;;;5.55;3.05;;;;;;;17.17;82.13;99914.16;1639132;85;20937;-71
2021/07/12 03:02:57;;;;;;;4.28;2.67;;;;;;;17.27;82.09;99916.13;1635755;85;21080;-72
2021/07/12 03:05:24;;;;;;;4.92;2.85;;;;;;;17.32;82.08;99910.05;1635160;85;21031;-71
2021/07/12 03:08:16;;;;;;;4.47;2.58;;;;;;;17.38;82.10;99905.64;1631990;85;20970;-71
2021/07/12 03:10:56;;;;;;;3.55;2.58;;;;;;;17.42;82.11;99909.72;1611415;85;21131;-71
2021/07/12 03:13:43;;;;;;;3.02;2.27;;;;;;;17.47;82.11;99910.23;1635008;85;21005;-71
2021/07/12 03:16:10;;;;;;;;;;;;;;;17.49;82.12;99907.02;1643570;85;20921;-71
2021/07/12 03:18:45;;;;;;;4.20;2.87;;;;;;;17.54;82.26;99906.20;1635293;85;20116;-71
2021/07/12 03:21:13;;;;;;;5.55;2.65;;;;;;;17.57;82.15;99904.66;1637862;85;20971;-71
2021/07/12 03:23:43;;;;;;;2.72;2.40;;;;;;;17.60;82.21;99909.71;1638037;85;21110;-71
2021/07/12 03:26:12;;;;;;;4.12;2.83;;;;;;;17.65;82.32;99904.11;1636418;85;21505;-71
2021/07/12 03:28:39;;;;;;;5.72;2.52;;;;;;;17.72;82.37;99903.16;1641549;85;20942;-71
2021/07/12 03:31:09;;;;;;;3.72;2.40;;;;;;;17.83;82.40;99901.91;1636626;85;20950;-71
2021/07/12 03:33:37;;;;;;;4.40;2.40;;;;;;;17.96;82.42;99894.77;1620423;85;21003;-70
2021/07/12 03:36:05;;;;;;;2.67;2.15;;;;;;;18.05;82.71;99890.09;1628428;84;21095;-69
2021/07/12 03:38:32;;;;;;;3.58;2.62;;;;;;;18.11;82.43;99892.27;1633510;85;20904;-70
2021/07/12 03:41:01;;;;;;;2.98;2.50;;;;;;;18.16;82.40;99893.73;1622922;86;20962;-71
2021/07/12 03:43:27;;;;;;;2.42;2.10;;;;;;;18.20;82.47;99885.92;1635529;85;20909;-71
2021/07/12 03:45:58;;;;;;;4.85;2.62;;;;;;;18.27;82.44;99880.06;1639389;84;21460;-71
2021/07/12 03:48:47;;;;;;;2.40;1.90;;;;;;;18.25;82.51;99883.30;1599084;87;21104;-71
2021/07/12 03:51:18;;;;;;;3.02;2.20;;;;;;;18.29;82.68;99883.92;1603591;87;21900;-71
2021/07/12 03:53:45;;;;;;;3.12;2.10;;;;;;;18.30;82.54;99889.08;1598286;87;21049;-71
2021/07/12 03:56:13;;;;;;;;;;;;;;;18.42;82.56;99891.25;1579302;87;21019;-71
2021/07/12 03:58:39;;;;;;;;;;;;;;;18.53;82.64;99902.32;1604559;87;20114;-71
2021/07/12 04:01:06;;;;;;;3.98;2.50;;;;;;;18.65;82.53;99911.09;1593283;87;21079;-71
2021/07/12 04:03:33;;;;;;;3.62;2.37;;;;;;;18.75;82.54;99917.39;1602779;87;20978;-71
2021/07/12 04:06:00;;;;;;;;;;;;;;;18.81;82.48;99922.20;1581623;87;21087;-71
2021/07/12 04:08:26;;;;;;;3.60;2.62;;;;;;;18.80;82.42;99923.17;1598440;87;20502;-71
2021/07/12 04:10:53;;;;;;;3.10;2.75;;;;;;;18.89;82.43;99919.80;1602226;87;21015;-71
2021/07/12 04:13:20;;;;;;;10.28;2.90;;;;;;;18.96;82.35;99920.14;1604624;88;21199;-71
2021/07/12 04:15:46;;;;;;;3.37;2.55;;;;;;;19.10;82.37;99917.72;1584199;88;20991;-71
2021/07/12 04:18:13;;;;;;;6.55;2.58;;;;;;;19.25;82.32;99920.48;1592019;87;21687;-71
2021/07/12 04:20:41;;;;;;;4.62;3.08;;;;;;;19.28;82.06;99916.75;1614894;86;21028;-71
2021/07/12 04:23:10;;;;;;;4.47;2.60;;;;;;;19.34;82.19;99913.61;1597278;87;21015;-71
2021/07/12 04:25:37;;;;;;;3.87;3.02;;;;;;;19.47;82.25;99914.80;1593433;87;21977;-71
2021/07/12 04:28:04;;;;;;;;;;;;;;;19.51;82.05;99925.48;1650264;85;20969;-71
2021/07/12 04:30:30;;;;;;;4.03;2.95;;;;;;;19.55;81.93;99914.98;1636004;85;20109;-71
2021/07/12 04:32:57;;;;;;;4.42;2.70;;;;;;;19.59;82.03;99913.78;1600764;86;21529;-71
2021/07/12 04:35:24;;;;;;;4.20;2.70;;;;;;;19.70;82.09;99908.48;1631892;85;21455;-71
2021/07/12 04:37:50;;;;;;;5.83;2.95;;;;;;;19.73;81.71;99908.22;1630889;85;21074;-71
2021/07/12 04:40:17;;;;;;;3.37;3.08;;;;;;;19.70;81.57;99901.85;1638145;85;21461;-71
2021/07/12 04:42:44;;;;;;;5.70;2.70;;;;;;;19.68;81.58;99893.18;1634181;85;20936;-71
2021/07/12 04:45:12;;;;;;;3.15;2.70;;;;;;;19.62;81.77;99889.20;1637853;85;20939;-71
2021/07/12 04:47:39;;;;;;;6.50;2.67;;;;;;;19.57;81.64;99880.78;1641991;85;21027;-71
2021/07/12 04:50:07;;;;;;;;;;;;;;;19.51;81.66;99875.16;1625218;85;21261;-71
2021/07/12 04:52:34;;;;;;;2.72;2.50;;;;;;;19.48;81.59;99862.17;1636137;85;20128;-71
2021/07/12 04:55:05;;;;;;;6.15;3.40;;;;;;;19.35;81.62;99869.81;1633614;85;20912;-71
2021/07/12 04:57:31;;;;;;;2.95;2.47;;;;;;;19.34;81.85;99861.49;1621483;85;20958;-71
2021/07/12 04:59:58;;;;;;;3.72;2.83;;;;;;;19.28;82.06;99858.52;1627936;85;21547;-71
2021/07/12 05:02:24;;;;;;;4.50;3.17;;;;;;;19.30;81.97;99852.13;1640933;85;21108;-72
2021/07/12 05:04:51;;;;;;;5.80;2.60;;;;;;;19.32;82.20;99839.59;1632088;85;21522;-69
2021/07/12 05:07:18;;;;;;;5.35;2.55;;;;;;;19.35;82.19;99846.44;1636761;85;20940;-71
2021/07/12 05:09:45;;;;;;;6.45;2.67;;;;;;;19.52;82.30;99858.30;1635583;84;21487;-71
2021/07/12 05:12:14;;;;;;;4.62;2.67;;;;;;;19.71;82.30;99856.33;1636957;85;21619;-70
2021/07/12 05:14:42;;;;;;;4.78;2.80;;;;;;;20.17;82.96;99849.33;1636650;85;21094;-69
2021/07/12 05:17:11;;;;;;;3.95;2.35;;;;;;;21.02;82.57;99842.84;1617949;86;20974;-71
2021/07/12 05:19:39;;;;;;;3.50;2.50;;;;;;;21.73;81.89;99847.11;1642451;85;21810;-71
2021/07/12 05:22:06;;;;;;;6.47;2.50;;;;;;;22.45;81.73;99846.57;1642859;84;20947;-71
2021/07/12 05:24:34;;;;;;;;;;;;;;;23.12;80.69;99831.77;1655630;84;20931;-71
2021/07/12 05:27:01;;;;;;;4.28;2.35;;;;;;;23.87;79.44;99829.14;1648579;84;21914;-70
2021/07/12 05:29:28;;;;;;;3.00;2.00;;;;;;;24.61;80.18;99825.58;1626887;85;21069;-69
2021/07/12 05:31:54;;;;;;;5.30;1.70;;;;;;;24.98;79.29;99831.05;1646611;85;21000;-67
2021/07/12 05:34:21;;;;;;;4.45;1.98;;;;;;;24.65;78.27;99824.28;1657186;84;21049;-67
2021/07/12 05:36:48;;;;;;;5.85;2.00;;;;;;;24.21;78.29;99832.36;1657015;84;20912;-68
2021/07/12 05:39:16;;;;;;;4.65;2.33;;;;;;;23.58;77.86;99840.52;1649389;84;24368;-68
2021/07/12 05:41:44;;;;;;;5.00;2.30;;;;;;;23.12;78.01;99821.11;1638126;85;20941;-68
2021/07/12 05:44:11;;;;;;;6.35;2.02;;;;;;;23.17;78.96;99822.83;1615485;86;21494;-67
2021/07/12 05:46:40;;;;;;;3.60;2.05;;;;;;;24.10;79.39;99820.62;1619601;86;21544;-69
2021/07/12 05:49:07;;;;;;;2.52;2.12;;;;;;;25.09;78.72;99817.38;1645187;85;20981;-69
2021/07/12 05:51:34;;;;;;;5.10;2.62;;;;;;;25.30;76.75;99824.98;1635616;85;21277;-68
2021/07/12 05:54:00;;;;;;;7.75;2.40;;;;;;;25.11;76.03;99821.23;1632801;85;21604;-70
2021/07/12 05:56:27;;;;;;;6.80;2.85;;;;;;;24.72;75.86;99821.28;1596029;87;21113;-68
2021/07/12 05:58:54;;;;;;;6.85;2.30;;;;;;;24.37;76.00;99832.09;1601461;86;21058;-70
2021/07/12 06:01:21;;;;;;;3.50;2.20;;;;;;;24.37;76.00;99832.09;1611506;86;21027;-70
2021/07/12 06:03:47;;;;;;;4.92;2.45;;;;;;;24.78;76.82;99817.96;1643170;84;21433;-69
2021/07/12 06:06:15;;;;;;;5.20;2.02;;;;;;;25.39;75.71;99812.46;1626682;85;20899;-69
2021/07/12 06:08:42;;;;;;;6.17;2.00;;;;;;;25.30;74.38;99810.79;1630974;85;21083;-69
2021/07/12 06:11:09;;;;;;;8.00;1.92;;;;;;;24.99;73.97;99818.87;1616005;86;20973;-69
2021/07/12 06:13:37;;;;;;;4.45;2.20;;;;;;;25.21;73.91;99823.30;1630149;85;20954;-70
2021/07/12 06:16:04;;;;;;;7.62;2.10;;;;;;;25.63;73.62;99815.15;1640562;85;21087;-69
2021/07/12 06:18:31;;;;;;;5.22;2.42;;;;;;;25.79;72.82;99808.93;1632527;85;21485;-69
2021/07/12 06:20:58;;;;;;;4.33;1.90;;;;;;;25.99;72.32;99814.81;1622899;85;20959;-69
2021/07/12 06:23:25;;;;;;;;;;;;;;;26.01;71.57;99814.12;1646594;84;20949;-69
2021/07/12 06:25:54;;;;;;;8.75;2.02;;;;;;;25.67;70.87;99811.13;1649474;84;20189;-68
2021/07/12 06:28:22;;;;;;;5.87;2.35;;;;;;;25.71;71.45;99825.48;1650484;85;21845;-69
2021/07/12 06:30:49;;;;;;;5.33;2.20;;;;;;;25.47;70.85;99824.49;1654352;84;20994;-70
2021/07/12 06:33:15;;;;;;;;;;;;;;;25.60;70.79;99817.30;1651030;84;20948;-69
2021/07/12 06:35:42;;;;;;;4.40;2.10;;;;;;;25.68;70.38;99813.28;1644010;84;20158;-69
2021/07/12 06:38:09;;;;;;;2.90;1.72;;;;;;;25.56;70.07;99819.48;1651628;84;21025;-69
2021/07/12 06:40:35;;;;;;;3.02;1.47;;;;;;;25.59;70.02;99813.80;1641208;84;22040;-70
2021/07/12 06:43:03;;;;;;;4.70;1.80;;;;;;;26.01;69.82;99818.14;1608729;85;21001;-69
2021/07/12 06:45:29;;;;;;;3.52;1.87;;;;;;;26.28;69.59;99816.91;1649745;83;20983;-69
2021/07/12 06:47:56;;;;;;;3.52;1.72;;;;;;;26.69;69.14;99815.95;1644848;85;20975;-68
2021/07/12 06:50:25;;;;;;;4.55;1.90;;;;;;;27.08;69.11;99813.22;1606863;85;20972;-69
2021/07/12 06:52:51;;;;;;;4.25;1.87;;;;;;;27.01;67.91;99813.11;1654072;84;22035;-70
2021/07/12 06:55:18;;;;;;;;;;;;;;;26.76;67.45;99808.89;1655985;84;21008;-69
2021/07/12 06:57:45;;;;;;;5.50;1.80;;;;;;;26.82;67.51;99810.87;1648889;85;20158;-69
2021/07/12 07:00:12;;;;;;;;;;;;;;;26.55;66.42;99804.98;1662253;84;20940;-66
2021/07/12 07:02:39;;;;;;;3.80;1.85;;;;;;;26.36;66.73;99800.00;1640510;84;20122;-69
2021/07/12 07:05:07;;;;;;;2.70;1.60;;;;;;;26.62;66.41;99804.28;1652052;84;21868;-68
2021/07/12 07:07:36;;;;;;;7.87;1.52;;;;;;;27.06;66.89;99800.53;1647852;85;20939;-70
2021/07/12 07:10:05;;;;;;;5.05;1.92;;;;;;;27.55;66.65;99798.02;1652389;83;20930;-69
2021/07/12 07:12:32;;;;;;;5.72;1.42;;;;;;;27.84;65.58;99799.47;1636813;85;21000;-69
2021/07/12 07:15:00;;;;;;;5.45;1.50;;;;;;;27.92;65.63;99795.84;1643139;84;21166;-70
2021/07/12 07:17:27;;;;;;;5.20;1.60;;;;;;;28.11;65.05;99811.93;1643531;85;21115;-70
2021/07/12 07:19:53;;;;;;;;;;;;;;;27.98;64.28;99806.36;1655647;84;20992;-70
2021/07/12 07:22:20;;;;;;;2.72;1.52;;;;;;;27.48;63.10;99799.77;1649819;85;20226;-67
2021/07/12 07:24:46;;;;;;;;;;;;;;;26.80;63.13;99794.13;1654224;84;20904;-68
2021/07/12 07:27:13;;;;;;;8.05;2.75;;;;;;;26.26;62.27;99792.66;1640771;85;20090;-67
2021/07/12 07:29:39;;;;;;;;;;;;;;;26.33;63.55;99789.64;1647955;84;21143;-67
2021/07/12 07:32:06;;;;;;;;;;;;;;;26.52;62.64;99786.59;1648149;84;20114;-68
2021/07/12 07:34:33;;;;;;;2.52;1.45;;;;;;;26.42;62.45;99783.24;1644551;84;20112;-66
2021/07/12 07:37:00;;;;;;;4.85;2.35;;;;;;;26.29;62.87;99788.30;1654877;84;20935;-69
2021/07/12 07:39:27;;;;;;;7.12;2.10;;;;;;;26.42;63.12;99788.59;1638165;84;21554;-70
2021/07/12 07:41:53;;;;;;;5.53;1.70;;;;;;;26.33;62.37;99784.29;1645475;84;21099;-70
2021/07/12 07:44:20;;;;;;;4.72;1.52;;;;;;;25.97;61.67;99779.37;1638566;85;20918;-70
2021/07/12 07:46:47;;;;;;;;;;;;;;;26.00;62.04;99783.55;1651692;84;20959;-69
2021/07/12 07:49:13;;;;;;;3.55;1.90;;;;;;;25.74;61.96;99775.68;1660237;84;20268;-69
2021/07/12 07:51:41;;;;;;;7.35;1.72;;;;;;;25.54;62.30;99778.70;1647514;84;21046;-69
2021/07/12 07:54:08;;;;;;;3.60;1.67;;;;;;;25.50;62.72;99774.70;1637446;85;21111;-69
2021/07/12 07:56:35;;;;;;;3.37;1.85;;;;;;;25.66;62.70;99781.38;1623325;85;20973;-70
2021/07/12 07:59:02;;;;;;;2.95;1.82;;;;;;;26.07;63.36;99775.15;1620649;85;21050;-69
2021/07/12 08:01:31;;;;;;;2.75;1.80;;;;;;;26.66;62.78;99781.48;1633769;85;20898;-70
2021/07/12 08:04:07;;;;;;;6.00;2.08;;;;;;;26.78;61.84;99786.28;1650980;84;20949;-68
2021/07/12 08:06:34;;;;;;;;;;;;;;;26.86;61.94;99780.05;1657497;84;21200;-69
2021/07/12 08:09:01;;;;;;;;;;;;;;;26.96;61.80;99780.64;1658629;84;20468;-69
2021/07/12 08:11:28;;;;;;;3.80;2.20;;;;;;;26.95;61.62;99770.95;1650138;84;20146;-68
2021/07/12 08:13:55;;;;;;;3.95;1.82;;;;;;;26.96;61.72;99775.28;1644805;84;20958;-68
2021/07/12 08:16:22;;;;;;;;;;;;;;;26.61;60.75;99775.81;1652767;84;20984;-68
2021/07/12 08:18:48;;;;;;;7.53;2.42;;;;;;;26.48;60.86;99769.16;1638842;84;21086;-68
2021/07/12 08:21:18;;;;;;;2.92;1.60;;;;;;;26.49;60.93;99777.50;1652303;84;21470;-68
2021/07/12 08:23:45;;;;;;;3.58;1.60;;;;;;;26.44;61.14;99773.20;1650815;84;20957;-69
2021/07/12 08:26:13;;;;;;;3.15;1.60;;;;;;;26.46;60.58;99781.88;1641523;84;20960;-69
2021/07/12 08:28:41;;;;;;;3.92;1.95;;;;;;;26.25;60.55;99770.94;1650583;84;21139;-68
2021/07/12 08:31:11;;;;;;;17.70;2.37;;;;;;;26.34;60.95;99765.88;1637938;84;22016;-69
2021/07/12 08:33:39;;;;;;;3.33;1.70;;;;;;;26.72;60.99;99778.09;1653937;84;21046;-68
2021/07/12 08:36:06;;;;;;;6.67;2.05;;;;;;;26.70;59.76;99754.19;1657504;84;20953;-69
2021/07/12 08:38:34;;;;;;;3.35;1.82;;;;;;;26.53;59.94;99760.13;1654441;84;21873;-70
2021/07/12 08:41:03;;;;;;;2.90;1.52;;;;;;;26.32;59.44;99761.19;1651297;84;21001;-70
2021/07/12 08:43:30;;;;;;;20.27;3.10;;;;;;;26.00;59.38;99761.63;1647090;85;21486;-70
2021/07/12 08:45:57;;;;;;;5.40;1.77;;;;;;;25.90;59.69;99767.66;1650117;83;20971;-70
2021/07/12 08:48:24;;;;;;;4.58;2.08;;;;;;;25.86;59.70;99762.34;1631717;85;21004;-70
2021/07/12 08:50:51;;;;;;;6.03;1.82;;;;;;;25.86;59.71;99766.35;1646711;84;21005;-70
2021/07/12 08:53:18;;;;;;;3.37;1.87;;;;;;;26.10;59.97;99777.48;1646226;84;21018;-71
2021/07/12 08:55:47;;;;;;;5.58;2.15;;;;;;;26.24;59.83;99775.94;1645495;84;21497;-69
2021/07/12 08:58:27;;;;;;;5.40;1.92;;;;;;;26.58;60.13;99773.48;1628846;85;21495;-68
2021/07/12 09:01:09;;;;;;;2.83;1.80;;;;;;;26.95;59.65;99775.48;1647860;84;20921;-69
2021/07/12 09:03:41;;;;;;;2.37;1.77;;;;;;;26.86;58.95;99781.39;1650093;84;20931;-70
2021/07/12 09:06:18;;;;;;;3.40;1.75;;;;;;;26.51;58.88;99782.22;1636417;84;21637;-68
2021/07/12 09:09:04;;;;;;;6.10;1.82;;;;;;;26.09;58.90;99769.96;1642384;84;21193;-68
2021/07/12 09:11:38;;;;;;;6.05;2.08;;;;;;;25.64;58.61;99776.70;1603520;85;21055;-68
2021/07/12 09:14:12;;;;;;;4.70;2.15;;;;;;;25.21;58.98;99778.71;1616714;85;21009;-69
2021/07/12 09:16:44;;;;;;;6.75;1.92;;;;;;;25.00;59.18;99784.48;1644028;85;20951;-69
2021/07/12 09:19:29;;;;;;;5.72;1.98;;;;;;;24.96;59.59;99779.64;1610554;85;21005;-68
2021/07/12 09:22:03;;;;;;;5.75;2.00;;;;;;;25.09;59.75;99773.30;1622074;85;20990;-69
2021/07/12 09:24:37;;;;;;;5.85;1.98;;;;;;;25.18;59.75;99771.03;1641027;85;21507;-68
2021/07/12 09:27:14;;;;;;;4.47;2.20;;;;;;;25.27;59.78;99764.36;1626334;85;21054;-69
2021/07/12 09:29:45;;;;;;;5.20;2.10;;;;;;;25.39;60.29;99769.70;1644138;85;20939;-68
2021/07/12 09:32:16;;;;;;;3.25;1.90;;;;;;;25.77;60.54;99772.70;1644029;85;21479;-68
2021/07/12 09:34:43;;;;;;;4.95;2.20;;;;;;;26.04;60.41;99764.28;1603733;85;22699;-68
2021/07/12 09:37:14;;;;;;;7.87;2.85;;;;;;;26.24;59.55;99769.25;1622268;85;20966;-69
2021/07/12 09:39:47;;;;;;;8.00;2.17;;;;;;;26.34;60.05;99751.98;1634616;85;20867;-67
2021/07/12 09:42:31;;;;;;;4.22;1.82;;;;;;;26.47;59.86;99764.82;1614878;86;20955;-69
2021/07/12 09:45:04;;;;;;;3.65;1.80;;;;;;;26.49;59.39;99745.89;1624789;85;21132;-68
2021/07/12 09:47:35;;;;;;;4.55;2.55;;;;;;;26.31;59.06;99746.15;1633876;85;21088;-68
2021/07/12 09:50:13;;;;;;;4.33;1.95;;;;;;;26.25;59.36;99736.14;1627825;85;21002;-69
2021/07/12 09:52:52;;;;;;;2.92;2.15;;;;;;;26.27;58.98;99742.13;1620319;86;20991;-68
2021/07/12 09:55:34;;;;;;;4.65;2.10;;;;;;;26.23;58.73;99738.15;1586598;88;20975;-69
2021/07/12 09:58:25;;;;;;;2.75;1.67;;;;;;;26.00;58.76;99733.55;1589103;87;21194;-68
2021/07/12 10:00:56;;;;;;;5.10;2.22;;;;;;;25.97;58.93;99726.37;1654609;84;21960;-68
2021/07/12 10:03:23;;;;;;;2.80;1.77;;;;;;;26.11;58.95;99735.84;1649604;84;20943;-68
2021/07/12 10:05:52;;;;;;;6.37;2.40;;;;;;;26.03;58.93;99735.88;1636897;85;20991;-68
2021/07/12 10:08:19;;;;;;;3.90;2.10;;;;;;;26.00;59.00;99719.34;1648188;84;20979;-69
2021/07/12 10:10:47;;;;;;;9.20;2.10;;;;;;;25.92;59.06;99718.02;1640115;85;21864;-68
2021/07/12 10:13:14;;;;;;;8.45;2.30;;;;;;;25.84;59.25;99714.86;1652952;84;21267;-69
2021/07/12 10:15:41;;;;;;;4.25;1.95;;;;;;;25.86;59.38;99715.53;1649710;84;20935;-70
2021/07/12 10:18:08;;;;;;;6.65;2.22;;;;;;;25.88;59.29;99724.23;1647277;85;21013;-70
2021/07/12 10:20:37;;;;;;;4.12;2.10;;;;;;;25.76;59.21;99725.55;1659188;83;21085;-69
2021/07/12 10:23:08;;;;;;;46.35;4.72;;;;;;;25.70;59.56;99720.88;1648584;84;20917;-70
2021/07/12 10:25:36;;;;;;;6.12;2.30;;;;;;;25.75;59.44;99711.85;1650964;84;21108;-70
2021/07/12 10:28:07;;;;;;;4.80;2.42;;;;;;;25.72;59.58;99724.23;1632390;84;21480;-69
2021/07/12 10:30:49;;;;;;;4.25;2.52;;;;;;;25.73;59.52;99727.22;1642493;85;20951;-70
2021/07/12 10:33:20;;;;;;;4.80;2.08;;;;;;;25.60;59.59;99723.25;1639010;85;20956;-70
2021/07/12 10:35:54;;;;;;;100.82;9.35;;;;;;;25.60;60.00;99704.53;1624059;84;21008;-70
2021/07/12 10:38:46;;;;;;;8.53;2.17;;;;;;;25.76;59.99;99701.47;1649180;84;21287;-70
2021/07/12 10:41:28;;;;;;;4.12;2.40;;;;;;;25.84;60.00;99705.50;1653970;84;20924;-69
2021/07/12 10:43:57;;;;;;;2.52;1.90;;;;;;;25.82;59.91;99702.13;1627708;85;21524;-70
2021/07/12 10:46:34;;;;;;;6.33;2.30;;;;;;;25.87;59.88;99695.79;1651990;85;20945;-69
2021/07/12 10:49:06;;;;;;;;;;;;;;;25.82;59.75;99692.28;1648631;83;20932;-70
2021/07/12 10:51:41;;;;;;;5.10;2.50;;;;;;;25.73;59.57;99699.14;1620046;85;22768;-70
2021/07/12 10:54:16;;;;;;;2.98;2.00;;;;;;;25.60;59.41;99687.16;1658940;84;20947;-70
2021/07/12 10:57:04;;;;;;;4.78;2.05;;;;;;;25.54;59.45;99690.48;1649983;84;20903;-70
2021/07/12 10:59:40;;;;;;;3.27;2.20;;;;;;;25.61;59.69;99704.85;1625533;85;20961;-70
2021/07/12 11:02:21;;;;;;;3.87;2.33;;;;;;;25.65;59.68;99683.47;1645776;84;20979;-69
2021/07/12 11:05:08;;;;;;;2.95;2.02;;;;;;;25.70;59.80;99682.11;1621969;85;21787;-70
2021/07/12 11:07:45;;;;;;;3.45;2.10;;;;;;;25.77;59.58;99692.47;1647162;85;21183;-69
2021/07/12 11:10:28;;;;;;;5.53;2.25;;;;;;;25.64;59.71;99680.45;1646359;85;20932;-69
2021/07/12 11:13:02;;;;;;;4.47;2.35;;;;;;;25.66;59.61;99677.62;1635459;85;21538;-69
2021/07/12 11:15:37;;;;;;;2.83;1.95;;;;;;;25.66;59.64;99677.11;1652714;83;20923;-67
2021/07/12 11:18:21;;;;;;;4.53;2.10;;;;;;;25.70;59.73;99671.41;1643618;84;21755;-70
2021/07/12 11:21:03;;;;;;;4.87;2.22;;;;;;;25.81;59.79;99667.03;1630429;85;21031;-68
2021/07/12 11:23:50;;;;;;;4.87;2.45;;;;;;;25.90;59.81;99668.70;1640182;83;21006;-70
2021/07/12 11:26:29;;;;;;;3.45;2.50;;;;;;;25.89;59.82;99664.36;1644505;85;21494;-69
2021/07/12 11:29:17;;;;;;;6.75;2.00;;;;;;;25.96;59.96;99668.00;1646345;84;21092;-69
2021/07/12 11:32:08;;;;;;;3.80;2.20;;;;;;;25.88;59.82;99670.73;1651855;83;21108;-68
2021/07/12 11:34:53;;;;;;;5.28;2.17;;;;;;;25.66;59.74;99667.75;1627731;85;21603;-70
2021/07/12 11:37:25;;;;;;;13.60;2.98;;;;;;;25.51;59.86;99681.47;1603919;86;21897;-70
2021/07/12 11:39:59;;;;;;;10.93;2.35;;;;;;;25.52;60.26;99669.79;1619263;86;21621;-67
2021/07/12 11:42:35;;;;;;;5.37;2.72;;;;;;;25.68;60.45;99657.72;1617277;86;20994;-70
2021/07/12 11:45:13;;;;;;;5.37;2.30;;;;;;;25.84;60.41;99667.55;1609137;86;22164;-71
2021/07/12 11:47:47;;;;;;;4.12;2.10;;;;;;;25.88;60.01;99670.73;1618376;86;21526;-71
2021/07/12 11:50:30;;;;;;;4.22;2.15;;;;;;;25.78;60.04;99659.36;1615310;85;21099;-70
2021/07/12 11:53:01;;;;;;;2.42;1.90;;;;;;;25.87;60.18;99663.70;1612977;85;20964;-69
2021/07/12 11:55:31;;;;;;;7.12;2.60;;;;;;;25.99;60.24;99659.66;1597495;87;21006;-69
2021/07/12 11:58:01;;;;;;;8.15;2.45;;;;;;;25.99;59.96;99660.99;1620654;85;21242;-69